createdAt,value
2022-08-26T00:00:41.196Z,0.00
2022-08-26T00:01:41.255Z,0.00
2022-08-26T00:02:41.183Z,0.00
2022-08-26T00:03:41.187Z,0.00
2022-08-26T00:04:41.181Z,0.00
2022-08-26T00:05:41.165Z,0.00
2022-08-26T00:06:42.371Z,0.00
2022-08-26T00:07:41.148Z,0.00
2022-08-26T00:08:41.129Z,0.00
2022-08-26T00:09:41.113Z,0.00
2022-08-26T00:10:41.097Z,0.00
2022-08-26T00:11:41.101Z,0.00
2022-08-26T00:12:41.120Z,0.00
2022-08-26T00:13:41.061Z,0.00
2022-08-26T00:14:41.092Z,0.00
2022-08-26T00:15:41.074Z,0.00
2022-08-26T00:16:48.026Z,0.00
2022-08-26T00:17:41.057Z,0.00
2022-08-26T00:18:41.038Z,0.00
2022-08-26T00:19:41.000Z,0.00
2022-08-26T00:20:41.002Z,0.00
2022-08-26T00:21:41.020Z,0.00
2022-08-26T00:22:40.980Z,0.00
2022-08-26T00:23:40.945Z,0.00
2022-08-26T00:24:41.010Z,0.00
2022-08-26T00:25:42.592Z,0.00
2022-08-26T00:26:41.491Z,0.00
2022-08-26T00:27:40.929Z,0.00
2022-08-26T00:28:41.170Z,0.00
2022-08-26T00:29:40.906Z,0.00
2022-08-26T00:30:40.918Z,0.00
2022-08-26T00:31:41.002Z,0.00
2022-08-26T00:32:40.924Z,0.00
2022-08-26T00:33:40.893Z,0.00
2022-08-26T00:34:40.858Z,0.00
2022-08-26T00:35:40.857Z,0.00
2022-08-26T00:36:40.978Z,0.00
2022-08-26T00:37:40.819Z,0.00
2022-08-26T00:38:40.833Z,0.00
2022-08-26T00:39:40.862Z,0.00
2022-08-26T00:40:40.842Z,0.00
2022-08-26T00:41:40.840Z,0.00
2022-08-26T00:42:40.790Z,0.00
2022-08-26T00:43:47.539Z,0.00
2022-08-26T00:44:40.775Z,0.00
2022-08-26T00:45:40.802Z,0.00
2022-08-26T00:46:45.020Z,0.00
2022-08-26T00:47:40.783Z,0.00
2022-08-26T00:48:40.759Z,0.00
2022-08-26T00:49:40.747Z,0.00
2022-08-26T00:50:40.714Z,0.00
2022-08-26T00:51:40.919Z,0.00
2022-08-26T00:52:40.713Z,0.00
2022-08-26T00:53:41.489Z,0.00
2022-08-26T00:54:42.350Z,0.00
2022-08-26T00:55:40.655Z,0.00
2022-08-26T00:56:40.672Z,0.00
2022-08-26T00:57:40.616Z,0.00
2022-08-26T00:58:40.643Z,0.00
2022-08-26T00:59:40.615Z,0.00
2022-08-26T01:00:40.644Z,0.00
2022-08-26T01:01:40.605Z,0.00
2022-08-26T01:02:40.924Z,0.00
2022-08-26T01:03:40.556Z,0.00
2022-08-26T01:04:40.569Z,0.00
2022-08-26T01:05:40.537Z,0.00
2022-08-26T01:06:40.565Z,0.00
2022-08-26T01:07:40.534Z,0.00
2022-08-26T01:08:40.767Z,0.00
2022-08-26T01:09:40.524Z,0.00
2022-08-26T01:10:40.760Z,0.00
2022-08-26T01:11:40.550Z,0.00
2022-08-26T01:12:40.515Z,0.00
2022-08-26T01:13:40.467Z,0.00
2022-08-26T01:14:40.497Z,0.00
2022-08-26T01:15:40.504Z,0.00
2022-08-26T01:16:40.506Z,0.00
2022-08-26T01:17:40.443Z,0.00
2022-08-26T01:18:40.425Z,0.00
2022-08-26T01:19:40.445Z,0.00
2022-08-26T01:20:40.411Z,0.00
2022-08-26T01:21:40.587Z,0.00
2022-08-26T01:22:40.406Z,0.00
2022-08-26T01:23:40.400Z,0.00
2022-08-26T01:24:40.376Z,0.00
2022-08-26T01:25:40.340Z,0.00
2022-08-26T01:26:40.381Z,0.00
2022-08-26T01:27:40.378Z,0.00
2022-08-26T01:28:40.315Z,0.00
2022-08-26T01:29:40.313Z,0.00
2022-08-26T01:30:40.341Z,0.00
2022-08-26T01:31:40.311Z,0.00
2022-08-26T01:32:40.312Z,0.00
2022-08-26T01:33:42.096Z,0.00
2022-08-26T01:34:40.313Z,0.00
2022-08-26T01:35:40.242Z,0.00
2022-08-26T01:36:40.260Z,0.00
2022-08-26T01:37:40.470Z,0.00
2022-08-26T01:38:40.248Z,0.00
2022-08-26T01:39:40.224Z,0.00
2022-08-26T01:40:40.215Z,0.00
2022-08-26T01:41:40.426Z,0.00
2022-08-26T01:42:40.254Z,0.00
2022-08-26T01:43:40.165Z,0.00
2022-08-26T01:44:40.186Z,0.00
2022-08-26T01:45:40.231Z,0.00
2022-08-26T01:46:40.181Z,0.00
2022-08-26T01:47:40.138Z,0.00
2022-08-26T01:48:40.146Z,0.00
2022-08-26T01:49:40.106Z,0.00
2022-08-26T01:50:40.149Z,0.00
2022-08-26T01:51:40.108Z,0.00
2022-08-26T01:52:40.115Z,0.00
2022-08-26T01:53:41.801Z,0.00
2022-08-26T01:54:40.105Z,0.00
2022-08-26T01:55:40.078Z,0.00
2022-08-26T01:56:40.086Z,0.00
2022-08-26T01:57:40.070Z,0.00
2022-08-26T01:58:40.045Z,0.00
2022-08-26T01:59:40.025Z,0.00
2022-08-26T02:00:40.086Z,0.00
2022-08-26T02:01:40.234Z,0.00
2022-08-26T02:02:40.001Z,0.00
2022-08-26T02:03:40.040Z,0.00
2022-08-26T02:04:40.043Z,0.00
2022-08-26T02:05:40.720Z,0.00
2022-08-26T02:06:39.968Z,0.00
2022-08-26T02:07:39.967Z,0.00
2022-08-26T02:08:39.979Z,0.00
2022-08-26T02:09:41.383Z,0.00
2022-08-26T02:10:39.910Z,0.00
2022-08-26T02:11:39.907Z,0.00
2022-08-26T02:12:40.623Z,0.00
2022-08-26T02:13:39.916Z,0.00
2022-08-26T02:14:43.752Z,0.00
2022-08-26T02:15:39.850Z,0.00
2022-08-26T02:16:39.983Z,0.00
2022-08-26T02:17:39.871Z,0.00
2022-08-26T02:18:40.084Z,0.00
2022-08-26T02:19:40.118Z,0.00
2022-08-26T02:20:39.864Z,0.00
2022-08-26T02:21:39.812Z,0.00
2022-08-26T02:22:39.791Z,0.00
2022-08-26T02:23:39.775Z,0.00
2022-08-26T02:24:39.793Z,0.00
2022-08-26T02:25:39.764Z,0.00
2022-08-26T02:26:39.779Z,0.00
2022-08-26T02:27:39.735Z,0.00
2022-08-26T02:28:39.788Z,0.00
2022-08-26T02:29:39.785Z,0.00
2022-08-26T02:30:39.984Z,0.00
2022-08-26T02:31:39.724Z,0.00
2022-08-26T02:32:40.088Z,0.00
2022-08-26T02:33:43.130Z,0.00
2022-08-26T02:34:39.674Z,0.00
2022-08-26T02:35:39.663Z,0.00
2022-08-26T02:36:39.705Z,0.00
2022-08-26T02:37:39.662Z,0.00
2022-08-26T02:38:39.759Z,0.00
2022-08-26T02:39:39.616Z,0.00
2022-08-26T02:40:39.633Z,0.00
2022-08-26T02:41:44.782Z,0.00
2022-08-26T02:42:40.309Z,0.00
2022-08-26T02:43:39.624Z,0.00
2022-08-26T02:44:39.598Z,0.00
2022-08-26T02:45:39.830Z,0.00
2022-08-26T02:46:39.930Z,0.00
2022-08-26T02:47:39.832Z,0.00
2022-08-26T02:48:39.543Z,0.00
2022-08-26T02:49:39.587Z,0.00
2022-08-26T02:50:39.516Z,0.00
2022-08-26T02:51:39.528Z,0.00
2022-08-26T02:52:39.502Z,0.00
2022-08-26T02:53:39.498Z,0.00
2022-08-26T02:54:39.476Z,0.00
2022-08-26T02:55:39.514Z,0.00
2022-08-26T02:56:39.470Z,0.00
2022-08-26T02:57:39.481Z,0.00
2022-08-26T02:58:39.465Z,0.00
2022-08-26T02:59:39.456Z,0.00
2022-08-26T03:00:39.461Z,0.00
2022-08-26T03:01:39.506Z,0.00
2022-08-26T03:02:39.381Z,0.00
2022-08-26T03:03:39.402Z,0.00
2022-08-26T03:04:39.631Z,0.00
2022-08-26T03:05:39.383Z,0.00
2022-08-26T03:06:39.408Z,0.00
2022-08-26T03:07:39.369Z,0.00
2022-08-26T03:08:39.338Z,0.00
2022-08-26T03:09:39.395Z,0.00
2022-08-26T03:10:39.326Z,0.00
2022-08-26T03:11:39.341Z,0.00
2022-08-26T03:12:39.317Z,0.00
2022-08-26T03:13:39.305Z,0.00
2022-08-26T03:14:39.283Z,0.00
2022-08-26T03:15:39.275Z,0.00
2022-08-26T03:16:39.267Z,0.00
2022-08-26T03:17:39.300Z,0.00
2022-08-26T03:18:39.269Z,0.00
2022-08-26T03:19:39.255Z,0.00
2022-08-26T03:20:39.214Z,0.00
2022-08-26T03:21:39.233Z,0.00
2022-08-26T03:22:39.248Z,0.00
2022-08-26T03:23:39.204Z,0.00
2022-08-26T03:24:39.199Z,0.00
2022-08-26T03:25:39.174Z,0.00
2022-08-26T03:26:39.196Z,0.00
2022-08-26T03:27:39.160Z,0.00
2022-08-26T03:28:39.146Z,0.00
2022-08-26T03:29:39.379Z,0.00
2022-08-26T03:30:39.130Z,0.00
2022-08-26T03:31:39.203Z,0.00
2022-08-26T03:32:39.119Z,0.00
2022-08-26T03:33:39.126Z,0.00
2022-08-26T03:34:39.136Z,0.00
2022-08-26T03:35:39.320Z,0.00
2022-08-26T03:36:39.071Z,0.00
2022-08-26T03:37:39.299Z,0.00
2022-08-26T03:38:39.068Z,0.00
2022-08-26T03:39:39.084Z,0.00
2022-08-26T03:40:39.039Z,0.00
2022-08-26T03:41:39.035Z,0.00
2022-08-26T03:42:39.025Z,0.00
2022-08-26T03:43:39.004Z,0.00
2022-08-26T03:44:42.245Z,0.00
2022-08-26T03:45:39.001Z,0.00
2022-08-26T03:46:39.042Z,0.00
2022-08-26T03:47:38.987Z,0.00
2022-08-26T03:48:38.986Z,0.00
2022-08-26T03:49:38.952Z,0.00
2022-08-26T03:50:38.931Z,0.00
2022-08-26T03:51:39.106Z,0.00
2022-08-26T03:52:43.563Z,0.00
2022-08-26T03:53:38.926Z,0.00
2022-08-26T03:54:39.120Z,0.00
2022-08-26T03:55:38.877Z,0.00
2022-08-26T03:56:38.873Z,0.00
2022-08-26T03:57:38.881Z,0.00
2022-08-26T03:58:38.856Z,0.00
2022-08-26T03:59:38.873Z,0.00
2022-08-26T04:00:38.826Z,0.00
2022-08-26T04:01:38.912Z,0.00
2022-08-26T04:02:38.900Z,0.00
2022-08-26T04:03:38.738Z,1.00
2022-08-26T04:04:38.778Z,0.00
2022-08-26T04:05:38.774Z,1.00
2022-08-26T04:06:38.709Z,1.00
2022-08-26T04:07:38.705Z,1.00
2022-08-26T04:08:38.806Z,0.00
2022-08-26T04:09:38.722Z,2.00
2022-08-26T04:10:38.697Z,1.00
2022-08-26T04:11:39.274Z,1.00
2022-08-26T04:12:38.722Z,0.00
2022-08-26T04:13:38.646Z,2.00
2022-08-26T04:14:38.637Z,1.00
2022-08-26T04:15:38.617Z,1.00
2022-08-26T04:16:38.597Z,5.00
2022-08-26T04:17:38.629Z,4.00
2022-08-26T04:18:40.600Z,2.00
2022-08-26T04:19:38.590Z,1.00
2022-08-26T04:20:38.566Z,5.00
2022-08-26T04:21:38.591Z,5.00
2022-08-26T04:22:38.539Z,7.00
2022-08-26T04:23:47.484Z,7.00
2022-08-26T04:24:38.502Z,9.00
2022-08-26T04:25:38.516Z,10.00
2022-08-26T04:26:39.503Z,11.00
2022-08-26T04:27:38.515Z,10.00
2022-08-26T04:28:38.494Z,14.00
2022-08-26T04:29:38.478Z,15.00
2022-08-26T04:30:38.451Z,16.00
2022-08-26T04:31:38.495Z,18.00
2022-08-26T04:32:38.438Z,19.00
2022-08-26T04:33:41.732Z,24.00
2022-08-26T04:34:38.455Z,21.00
2022-08-26T04:35:38.417Z,25.00
2022-08-26T04:36:38.402Z,25.00
2022-08-26T04:37:38.402Z,26.00
2022-08-26T04:38:38.370Z,34.00
2022-08-26T04:39:38.363Z,46.00
2022-08-26T04:40:38.379Z,39.00
2022-08-26T04:41:38.351Z,40.00
2022-08-26T04:42:38.350Z,39.00
2022-08-26T04:43:39.049Z,43.00
2022-08-26T04:44:38.311Z,40.00
2022-08-26T04:45:38.327Z,49.00
2022-08-26T04:46:39.765Z,50.00
2022-08-26T04:47:38.296Z,55.00
2022-08-26T04:48:38.275Z,63.00
2022-08-26T04:49:38.273Z,60.00
2022-08-26T04:50:38.249Z,69.00
2022-08-26T04:51:38.264Z,68.00
2022-08-26T04:52:38.215Z,73.00
2022-08-26T04:53:38.206Z,71.00
2022-08-26T04:54:38.193Z,69.00
2022-08-26T04:55:42.704Z,81.00
2022-08-26T04:56:38.225Z,81.00
2022-08-26T04:57:38.252Z,81.00
2022-08-26T04:58:38.171Z,93.00
2022-08-26T04:59:39.441Z,100.00
2022-08-26T05:00:38.365Z,105.00
2022-08-26T05:01:39.697Z,102.00
2022-08-26T05:02:38.134Z,103.00
2022-08-26T05:03:38.167Z,101.00
2022-08-26T05:04:38.110Z,109.00
2022-08-26T05:05:38.095Z,114.00
2022-08-26T05:06:38.082Z,111.00
2022-08-26T05:07:38.076Z,114.00
2022-08-26T05:08:38.080Z,135.00
2022-08-26T05:09:38.068Z,133.00
2022-08-26T05:10:38.059Z,133.00
2022-08-26T05:11:38.042Z,169.00
2022-08-26T05:12:38.000Z,176.00
2022-08-26T05:13:38.005Z,152.00
2022-08-26T05:14:38.034Z,163.00
2022-08-26T05:15:38.292Z,183.00
2022-08-26T05:16:40.399Z,184.00
2022-08-26T05:17:37.983Z,170.00
2022-08-26T05:18:37.980Z,159.00
2022-08-26T05:19:38.594Z,174.00
2022-08-26T05:20:37.950Z,180.00
2022-08-26T05:21:37.926Z,192.00
2022-08-26T05:22:37.913Z,201.00
2022-08-26T05:23:37.921Z,207.00
2022-08-26T05:24:37.900Z,187.00
2022-08-26T05:25:37.919Z,198.00
2022-08-26T05:26:37.856Z,225.00
2022-08-26T05:27:37.884Z,210.00
2022-08-26T05:28:37.877Z,218.00
2022-08-26T05:29:38.110Z,224.00
2022-08-26T05:30:37.816Z,221.00
2022-08-26T05:31:37.824Z,230.00
2022-08-26T05:32:37.805Z,244.00
2022-08-26T05:33:37.813Z,238.00
2022-08-26T05:34:37.777Z,260.00
2022-08-26T05:35:37.813Z,269.00
2022-08-26T05:36:37.863Z,268.00
2022-08-26T05:37:37.770Z,267.00
2022-08-26T05:38:37.769Z,281.00
2022-08-26T05:39:37.730Z,299.00
2022-08-26T05:40:37.799Z,314.00
2022-08-26T05:41:38.361Z,322.00
2022-08-26T05:42:37.678Z,307.00
2022-08-26T05:43:37.714Z,359.00
2022-08-26T05:44:53.829Z,356.00
2022-08-26T05:45:39.436Z,338.00
2022-08-26T05:46:37.719Z,372.00
2022-08-26T05:47:38.507Z,406.00
2022-08-26T05:48:37.648Z,378.00
2022-08-26T05:49:37.636Z,344.00
2022-08-26T05:50:37.602Z,386.00
2022-08-26T05:51:37.624Z,389.00
2022-08-26T05:52:37.584Z,384.00
2022-08-26T05:53:37.604Z,427.00
2022-08-26T05:54:37.588Z,431.00
2022-08-26T05:55:37.577Z,489.00
2022-08-26T05:56:37.530Z,452.00
2022-08-26T05:57:42.164Z,417.00
2022-08-26T05:58:37.533Z,416.00
2022-08-26T05:59:37.521Z,423.00
2022-08-26T06:00:37.491Z,449.00
2022-08-26T06:01:37.558Z,462.00
2022-08-26T06:02:37.577Z,452.00
2022-08-26T06:03:37.499Z,480.00
2022-08-26T06:04:37.455Z,513.00
2022-08-26T06:05:39.109Z,567.00
2022-08-26T06:06:37.448Z,529.00
2022-08-26T06:07:37.425Z,515.00
2022-08-26T06:08:37.445Z,580.00
2022-08-26T06:09:37.415Z,572.00
2022-08-26T06:10:37.418Z,495.00
2022-08-26T06:11:37.376Z,514.00
2022-08-26T06:12:37.376Z,575.00
2022-08-26T06:13:37.378Z,562.00
2022-08-26T06:14:37.357Z,578.00
2022-08-26T06:15:37.695Z,595.00
2022-08-26T06:16:37.577Z,636.00
2022-08-26T06:17:37.337Z,701.00
2022-08-26T06:18:37.284Z,676.00
2022-08-26T06:19:37.287Z,632.00
2022-08-26T06:20:37.295Z,572.00
2022-08-26T06:21:37.342Z,701.00
2022-08-26T06:22:37.307Z,738.00
2022-08-26T06:23:37.252Z,691.00
2022-08-26T06:24:37.239Z,687.00
2022-08-26T06:25:37.227Z,672.00
2022-08-26T06:26:37.251Z,714.00
2022-08-26T06:27:37.207Z,667.00
2022-08-26T06:28:37.183Z,628.00
2022-08-26T06:29:37.563Z,720.00
2022-08-26T06:30:37.173Z,711.00
2022-08-26T06:31:37.217Z,765.00
2022-08-26T06:32:37.191Z,795.00
2022-08-26T06:33:37.133Z,777.00
2022-08-26T06:34:37.152Z,770.00
2022-08-26T06:35:37.122Z,752.00
2022-08-26T06:36:37.357Z,742.00
2022-08-26T06:37:37.129Z,738.00
2022-08-26T06:38:37.139Z,737.00
2022-08-26T06:39:41.188Z,732.00
2022-08-26T06:40:37.079Z,753.00
2022-08-26T06:41:41.333Z,717.00
2022-08-26T06:42:37.111Z,761.00
2022-08-26T06:43:37.115Z,845.00
2022-08-26T06:44:37.042Z,856.00
2022-08-26T06:45:37.146Z,895.00
2022-08-26T06:46:37.067Z,903.00
2022-08-26T06:47:37.115Z,856.00
2022-08-26T06:48:36.995Z,869.00
2022-08-26T06:49:37.326Z,881.00
2022-08-26T06:50:37.021Z,909.00
2022-08-26T06:51:36.987Z,880.00
2022-08-26T06:52:36.998Z,860.00
2022-08-26T06:53:37.021Z,864.00
2022-08-26T06:54:36.962Z,964.00
2022-08-26T06:55:36.934Z,1065.00
2022-08-26T06:56:36.980Z,1043.00
2022-08-26T06:57:39.737Z,1092.00
2022-08-26T06:58:36.960Z,1160.00
2022-08-26T06:59:36.907Z,1189.00
2022-08-26T07:00:36.884Z,1244.00
2022-08-26T07:01:36.930Z,1254.00
2022-08-26T07:02:37.133Z,1507.00
2022-08-26T07:03:39.719Z,1483.00
2022-08-26T07:04:36.861Z,1292.00
2022-08-26T07:05:36.837Z,1319.00
2022-08-26T07:06:36.962Z,1371.00
2022-08-26T07:07:36.855Z,1265.00
2022-08-26T07:08:36.880Z,1235.00
2022-08-26T07:09:36.917Z,1335.00
2022-08-26T07:10:36.827Z,1374.00
2022-08-26T07:11:36.740Z,1367.00
2022-08-26T07:12:36.857Z,1350.00
2022-08-26T07:13:36.745Z,1362.00
2022-08-26T07:14:36.859Z,1296.00
2022-08-26T07:15:36.729Z,1203.00
2022-08-26T07:16:36.686Z,1149.00
2022-08-26T07:17:36.718Z,1135.00
2022-08-26T07:18:36.740Z,1092.00
2022-08-26T07:19:36.881Z,1111.00
2022-08-26T07:20:36.698Z,1128.00
2022-08-26T07:21:36.671Z,1156.00
2022-08-26T07:22:36.673Z,1112.00
2022-08-26T07:23:36.613Z,1146.00
2022-08-26T07:24:36.666Z,1182.00
2022-08-26T07:25:36.676Z,1136.00
2022-08-26T07:26:36.600Z,1155.00
2022-08-26T07:27:36.606Z,1233.00
2022-08-26T07:28:36.581Z,1176.00
2022-08-26T07:29:36.645Z,1146.00
2022-08-26T07:30:36.695Z,1215.00
2022-08-26T07:31:39.479Z,1288.00
2022-08-26T07:32:36.588Z,1295.00
2022-08-26T07:33:36.549Z,1297.00
2022-08-26T07:34:36.559Z,1249.00
2022-08-26T07:35:36.618Z,1147.00
2022-08-26T07:36:36.547Z,1121.00
2022-08-26T07:37:39.264Z,1131.00
2022-08-26T07:38:36.571Z,1211.00
2022-08-26T07:39:36.483Z,1301.00
2022-08-26T07:40:36.490Z,1317.00
2022-08-26T07:41:36.457Z,1333.00
2022-08-26T07:42:36.438Z,1293.00
2022-08-26T07:43:36.468Z,1257.00
2022-08-26T07:44:36.440Z,1215.00
2022-08-26T07:45:36.515Z,1186.00
2022-08-26T07:46:36.436Z,1243.00
2022-08-26T07:47:36.375Z,1304.00
2022-08-26T07:48:36.494Z,1315.00
2022-08-26T07:49:36.371Z,1317.00
2022-08-26T07:50:50.266Z,1315.00
2022-08-26T07:51:36.439Z,1314.00
2022-08-26T07:52:36.434Z,1288.00
2022-08-26T07:53:36.334Z,1285.00
2022-08-26T07:54:36.375Z,1293.00
2022-08-26T07:55:36.296Z,1295.00
2022-08-26T07:56:36.358Z,1291.00
2022-08-26T07:57:36.260Z,1282.00
2022-08-26T07:58:36.283Z,1356.00
2022-08-26T07:59:36.245Z,1453.00
2022-08-26T08:00:36.273Z,1446.00
2022-08-26T08:01:36.243Z,1382.00
2022-08-26T08:02:36.218Z,1300.00
2022-08-26T08:03:36.214Z,1282.00
2022-08-26T08:04:36.301Z,1269.00
2022-08-26T08:05:36.231Z,1257.00
2022-08-26T08:06:37.117Z,1259.00
2022-08-26T08:07:44.177Z,1212.00
2022-08-26T08:08:36.167Z,1243.00
2022-08-26T08:09:36.147Z,1172.00
2022-08-26T08:10:36.189Z,1141.00
2022-08-26T08:11:36.113Z,1199.00
2022-08-26T08:12:36.417Z,1309.00
2022-08-26T08:13:36.098Z,1503.00
2022-08-26T08:14:36.102Z,1546.00
2022-08-26T08:15:36.034Z,1536.00
2022-08-26T08:16:39.105Z,1457.00
2022-08-26T08:17:36.032Z,1446.00
2022-08-26T08:18:36.040Z,1493.00
2022-08-26T08:19:39.033Z,1423.00
2022-08-26T08:20:36.024Z,1437.00
2022-08-26T08:21:36.032Z,1379.00
2022-08-26T08:22:36.007Z,1270.00
2022-08-26T08:23:35.978Z,1063.00
2022-08-26T08:24:35.956Z,1006.00
2022-08-26T08:25:35.923Z,1013.00
2022-08-26T08:26:36.178Z,1030.00
2022-08-26T08:27:35.931Z,1142.00
2022-08-26T08:28:35.904Z,1231.00
2022-08-26T08:29:35.894Z,1217.00
2022-08-26T08:30:35.934Z,1221.00
2022-08-26T08:32:35.877Z,1234.00
2022-08-26T08:33:36.579Z,1269.00
2022-08-26T08:34:35.919Z,1328.00
2022-08-26T08:35:35.829Z,1356.00
2022-08-26T08:36:36.122Z,1398.00
2022-08-26T08:37:35.827Z,1474.00
2022-08-26T08:38:35.793Z,1653.00
2022-08-26T08:39:36.044Z,1772.00
2022-08-26T08:40:35.854Z,1823.00
2022-08-26T08:41:35.791Z,1812.00
2022-08-26T08:42:35.793Z,1893.00
2022-08-26T08:43:37.505Z,1894.00
2022-08-26T08:44:35.740Z,1775.00
2022-08-26T08:45:37.062Z,1763.00
2022-08-26T08:46:35.775Z,1681.00
2022-08-26T08:47:35.701Z,1643.00
2022-08-26T08:48:35.733Z,1740.00
2022-08-26T08:49:35.694Z,1788.00
2022-08-26T08:50:35.671Z,1893.00
2022-08-26T08:51:35.664Z,1951.00
2022-08-26T08:52:35.670Z,2018.00
2022-08-26T08:53:35.626Z,1896.00
2022-08-26T08:54:35.637Z,1948.00
2022-08-26T08:55:35.653Z,1917.00
2022-08-26T08:56:35.843Z,1794.00
2022-08-26T08:57:35.612Z,1891.00
2022-08-26T08:58:35.607Z,2027.00
2022-08-26T08:59:35.568Z,2157.00
2022-08-26T09:00:39.123Z,2142.00
2022-08-26T09:01:35.625Z,2015.00
2022-08-26T09:02:35.597Z,1731.00
2022-08-26T09:03:35.556Z,1835.00
2022-08-26T09:04:35.527Z,2002.00
2022-08-26T09:05:37.631Z,2133.00
2022-08-26T09:06:35.577Z,2014.00
2022-08-26T09:07:36.687Z,1815.00
2022-08-26T09:08:35.482Z,1763.00
2022-08-26T09:09:35.504Z,1801.00
2022-08-26T09:10:35.463Z,1837.00
2022-08-26T09:11:35.456Z,1916.00
2022-08-26T09:12:36.091Z,2072.00
2022-08-26T09:13:35.443Z,2067.00
2022-08-26T09:14:35.413Z,2125.00
2022-08-26T09:15:35.399Z,2121.00
2022-08-26T09:16:35.456Z,2066.00
2022-08-26T09:17:35.406Z,2185.00
2022-08-26T09:18:35.421Z,2444.00
2022-08-26T09:19:35.398Z,2453.00
2022-08-26T09:20:35.352Z,2223.00
2022-08-26T09:21:35.357Z,1851.00
2022-08-26T09:22:35.364Z,1740.00
2022-08-26T09:23:35.846Z,1908.00
2022-08-26T09:24:38.427Z,2201.00
2022-08-26T09:25:35.308Z,2414.00
2022-08-26T09:26:35.310Z,2533.00
2022-08-26T09:27:35.306Z,2660.00
2022-08-26T09:28:35.337Z,2801.00
2022-08-26T09:29:35.249Z,2771.00
2022-08-26T09:30:35.324Z,2535.00
2022-08-26T09:31:35.486Z,2465.00
2022-08-26T09:32:35.247Z,2559.00
2022-08-26T09:33:35.232Z,2433.00
2022-08-26T09:34:35.242Z,2325.00
2022-08-26T09:35:35.187Z,2422.00
2022-08-26T09:36:39.368Z,2379.00
2022-08-26T09:37:35.252Z,2363.00
2022-08-26T09:38:35.183Z,2131.00
2022-08-26T09:39:35.159Z,2086.00
2022-08-26T09:40:35.444Z,2180.00
2022-08-26T09:41:35.167Z,2083.00
2022-08-26T09:42:35.141Z,1978.00
2022-08-26T09:43:35.142Z,1958.00
2022-08-26T09:44:35.147Z,1894.00
2022-08-26T09:45:35.103Z,1801.00
2022-08-26T09:46:35.139Z,1805.00
2022-08-26T09:47:35.092Z,1868.00
2022-08-26T09:48:36.364Z,1941.00
2022-08-26T09:49:36.316Z,1905.00
2022-08-26T09:50:35.094Z,1825.00
2022-08-26T09:51:35.063Z,1752.00
2022-08-26T09:52:35.034Z,1734.00
2022-08-26T09:53:35.032Z,1741.00
2022-08-26T09:54:35.051Z,1719.00
2022-08-26T09:55:35.002Z,1797.00
2022-08-26T09:56:35.016Z,1824.00
2022-08-26T09:57:34.973Z,1878.00
2022-08-26T09:58:34.962Z,1893.00
2022-08-26T09:59:35.003Z,1915.00
2022-08-26T10:00:34.981Z,1912.00
2022-08-26T10:01:35.018Z,1953.00
2022-08-26T10:02:34.915Z,1934.00
2022-08-26T10:03:35.199Z,1916.00
2022-08-26T10:04:34.963Z,1955.00
2022-08-26T10:05:34.915Z,1997.00
2022-08-26T10:06:34.902Z,1985.00
2022-08-26T10:07:34.883Z,2011.00
2022-08-26T10:08:34.877Z,2058.00
2022-08-26T10:09:34.861Z,2126.00
2022-08-26T10:10:34.869Z,2119.00
2022-08-26T10:11:34.855Z,2053.00
2022-08-26T10:12:34.848Z,1919.00
2022-08-26T10:13:34.827Z,1813.00
2022-08-26T10:14:34.901Z,1784.00
2022-08-26T10:15:35.098Z,1829.00
2022-08-26T10:16:34.823Z,1835.00
2022-08-26T10:17:34.778Z,1912.00
2022-08-26T10:18:34.813Z,2041.00
2022-08-26T10:19:41.788Z,2173.00
2022-08-26T10:20:34.857Z,2405.00
2022-08-26T10:21:34.726Z,2381.00
2022-08-26T10:22:34.767Z,2302.00
2022-08-26T10:23:34.735Z,2146.00
2022-08-26T10:24:34.754Z,2044.00
2022-08-26T10:25:34.721Z,2019.00
2022-08-26T10:26:34.697Z,1927.00
2022-08-26T10:27:34.933Z,1930.00
2022-08-26T10:28:34.683Z,2070.00
2022-08-26T10:29:34.673Z,2116.00
2022-08-26T10:30:34.656Z,2138.00
2022-08-26T10:31:40.338Z,2158.00
2022-08-26T10:32:34.675Z,2278.00
2022-08-26T10:33:34.627Z,2308.00
2022-08-26T10:34:34.672Z,2267.00
2022-08-26T10:35:34.616Z,2275.00
2022-08-26T10:36:46.948Z,2534.00
2022-08-26T10:37:34.584Z,2779.00
2022-08-26T10:38:34.565Z,2916.00
2022-08-26T10:39:34.565Z,3000.00
2022-08-26T10:40:34.602Z,2975.00
2022-08-26T10:41:34.537Z,2823.00
2022-08-26T10:42:34.521Z,2767.00
2022-08-26T10:43:34.505Z,2656.00
2022-08-26T10:44:34.528Z,2758.00
2022-08-26T10:45:34.578Z,2791.00
2022-08-26T10:46:34.490Z,2512.00
2022-08-26T10:47:34.496Z,2333.00
2022-08-26T10:48:35.433Z,2455.00
2022-08-26T10:49:34.452Z,2811.00
2022-08-26T10:50:34.452Z,2767.00
2022-08-26T10:51:34.457Z,2722.00
2022-08-26T10:52:34.441Z,2655.00
2022-08-26T10:53:34.521Z,2488.00
2022-08-26T10:54:34.421Z,2375.00
2022-08-26T10:55:34.786Z,2446.00
2022-08-26T10:56:34.400Z,2564.00
2022-08-26T10:57:34.400Z,2425.00
2022-08-26T10:58:34.378Z,2280.00
2022-08-26T10:59:34.334Z,2235.00
2022-08-26T11:00:34.366Z,2130.00
2022-08-26T11:01:34.377Z,2214.00
2022-08-26T11:02:34.334Z,2330.00
2022-08-26T11:03:34.334Z,2440.00
2022-08-26T11:04:34.992Z,2570.00
2022-08-26T11:05:34.288Z,2629.00
2022-08-26T11:06:34.282Z,2890.00
2022-08-26T11:07:34.258Z,2890.00
2022-08-26T11:08:34.291Z,3106.00
2022-08-26T11:09:34.241Z,3076.00
2022-08-26T11:10:34.236Z,2902.00
2022-08-26T11:11:34.257Z,2739.00
2022-08-26T11:12:34.260Z,3058.00
2022-08-26T11:13:35.442Z,3295.00
2022-08-26T11:14:34.263Z,3222.00
2022-08-26T11:15:34.194Z,3448.00
2022-08-26T11:16:34.192Z,3219.00
2022-08-26T11:17:34.163Z,3138.00
2022-08-26T11:18:34.161Z,2749.00
2022-08-26T11:19:57.126Z,2705.00
2022-08-26T11:20:34.143Z,2487.00
2022-08-26T11:21:34.156Z,2548.00
2022-08-26T11:22:34.134Z,2461.00
2022-08-26T11:23:34.097Z,2412.00
2022-08-26T11:24:34.088Z,2761.00
2022-08-26T11:25:34.126Z,2710.00
2022-08-26T11:26:43.263Z,2687.00
2022-08-26T11:27:34.090Z,2696.00
2022-08-26T11:28:34.047Z,2875.00
2022-08-26T11:29:34.063Z,3100.00
2022-08-26T11:30:34.069Z,3262.00
2022-08-26T11:31:34.058Z,3342.00
2022-08-26T11:32:34.014Z,3450.00
2022-08-26T11:33:33.995Z,3355.00
2022-08-26T11:34:33.991Z,3075.00
2022-08-26T11:35:33.990Z,2873.00
2022-08-26T11:36:33.969Z,2951.00
2022-08-26T11:37:33.985Z,2624.00
2022-08-26T11:38:33.942Z,2432.00
2022-08-26T11:39:36.922Z,2129.00
2022-08-26T11:40:33.987Z,1953.00
2022-08-26T11:41:33.935Z,1935.00
2022-08-26T11:42:33.907Z,2075.00
2022-08-26T11:43:33.917Z,2191.00
2022-08-26T11:44:34.145Z,2286.00
2022-08-26T11:45:33.962Z,2272.00
2022-08-26T11:46:33.861Z,2216.00
2022-08-26T11:47:33.857Z,2197.00
2022-08-26T11:48:33.873Z,2180.00
2022-08-26T11:49:33.870Z,2157.00
2022-08-26T11:50:33.852Z,2091.00
2022-08-26T11:51:35.962Z,2154.00
2022-08-26T11:52:33.835Z,2283.00
2022-08-26T11:53:33.850Z,2332.00
2022-08-26T11:54:35.711Z,2429.00
2022-08-26T11:55:33.816Z,2583.00
2022-08-26T11:56:33.786Z,2806.00
2022-08-26T11:57:33.770Z,2987.00
2022-08-26T11:58:33.741Z,3095.00
2022-08-26T12:00:34.492Z,3187.00
2022-08-26T12:01:33.722Z,3164.00
2022-08-26T12:02:33.705Z,3168.00
2022-08-26T12:03:33.789Z,3180.00
2022-08-26T12:04:33.838Z,3294.00
2022-08-26T12:05:33.698Z,3228.00
2022-08-26T12:06:35.422Z,3026.00
2022-08-26T12:07:33.670Z,2755.00
2022-08-26T12:08:33.658Z,2402.00
2022-08-26T12:09:33.650Z,2163.00
2022-08-26T12:10:33.714Z,2012.00
2022-08-26T12:11:33.653Z,2012.00
2022-08-26T12:12:35.226Z,2002.00
2022-08-26T12:13:33.598Z,2005.00
2022-08-26T12:14:33.643Z,1993.00
2022-08-26T12:15:33.590Z,2122.00
2022-08-26T12:16:33.605Z,2155.00
2022-08-26T12:17:33.586Z,2188.00
2022-08-26T12:18:33.555Z,2294.00
2022-08-26T12:19:33.553Z,2428.00
2022-08-26T12:20:33.515Z,2479.00
2022-08-26T12:21:34.737Z,2540.00
2022-08-26T12:22:33.521Z,2407.00
2022-08-26T12:23:33.541Z,2291.00
2022-08-26T12:24:33.492Z,2131.00
2022-08-26T12:25:36.263Z,1959.00
2022-08-26T12:26:33.465Z,1949.00
2022-08-26T12:27:33.470Z,1973.00
2022-08-26T12:28:33.428Z,2073.00
2022-08-26T12:29:33.439Z,2008.00
2022-08-26T12:30:33.445Z,2200.00
2022-08-26T12:31:33.464Z,2447.00
2022-08-26T12:32:33.481Z,2470.00
2022-08-26T12:33:33.444Z,2495.00
2022-08-26T12:34:33.473Z,2478.00
2022-08-26T12:35:33.402Z,2322.00
2022-08-26T12:36:33.366Z,2209.00
2022-08-26T12:37:33.406Z,2214.00